DLH897 LKPR-EDDF
Flight info
| Callsign | DLH897 |
|---|---|
| Flight time | 0h 45m |
| Altitude | 30000 |
| Route | BALTU4B/30 BALTU DCT DONAD DCT RAPET T170 VAGAB/N0393F240 T170 GAPLA T178 KERAX KERAX5A |
| Aircraft | A20N/M-SDE2E3FGHIRWXY/LB1 |
Departure
| Time | 2026-05-06 16:53 |
|---|---|
| Airport | Václav Havel Airport Prague (LKPR) |
Arrival
| Time | 2026-05-06 17:38 |
|---|---|
| Airport | Frankfurt Main Airport (EDDF) |
| Time | Latitude | Longitude | Altitude | Speed | Heading |
|---|---|---|---|---|---|
| 2026-05-06 16:28 | 50.10736 | 14.26296 | 1178 ft | 0 kts | 222° |
| 2026-05-06 16:41 | 50.10739 | 14.26300 | 1177 ft | 4 kts | 236° |
| 2026-05-06 16:41 | 50.10747 | 14.26319 | 1172 ft | 2 kts | 233° |
| 2026-05-06 16:41 | 50.10756 | 14.26336 | 1174 ft | 2 kts | 233° |
| 2026-05-06 16:42 | 50.10763 | 14.26351 | 1173 ft | 2 kts | 232° |
| 2026-05-06 16:42 | 50.10770 | 14.26381 | 1172 ft | 5 kts | 266° |
| 2026-05-06 16:42 | 50.10769 | 14.26371 | 1172 ft | 2 kts | 263° |
| 2026-05-06 16:42 | 50.10771 | 14.26344 | 1172 ft | 3 kts | 287° |
| 2026-05-06 16:43 | 50.10784 | 14.26322 | 1173 ft | 7 kts | 316° |
| 2026-05-06 16:43 | 50.10776 | 14.26340 | 1171 ft | 0 kts | 309° |
| 2026-05-06 16:45 | 50.10777 | 14.26337 | 1175 ft | 2 kts | 309° |
| 2026-05-06 16:45 | 50.10795 | 14.26304 | 1173 ft | 5 kts | 309° |
| 2026-05-06 16:46 | 50.10805 | 14.26272 | 1171 ft | 9 kts | 292° |
| 2026-05-06 16:46 | 50.10781 | 14.26225 | 1173 ft | 6 kts | 212° |
| 2026-05-06 16:46 | 50.10738 | 14.26183 | 1175 ft | 9 kts | 212° |
| 2026-05-06 16:46 | 50.10668 | 14.26110 | 1175 ft | 15 kts | 215° |
| 2026-05-06 16:47 | 50.10572 | 14.26015 | 1185 ft | 17 kts | 210° |
| 2026-05-06 16:47 | 50.10486 | 14.26018 | 1189 ft | 12 kts | 134° |
| 2026-05-06 16:47 | 50.10429 | 14.26126 | 1190 ft | 14 kts | 126° |
| 2026-05-06 16:47 | 50.10368 | 14.26255 | 1192 ft | 15 kts | 126° |
| 2026-05-06 16:48 | 50.10291 | 14.26413 | 1194 ft | 27 kts | 127° |
| 2026-05-06 16:48 | 50.10148 | 14.26708 | 1203 ft | 39 kts | 127° |
| 2026-05-06 16:48 | 50.09982 | 14.27049 | 1209 ft | 40 kts | 129° |
| 2026-05-06 16:48 | 50.09815 | 14.27377 | 1212 ft | 38 kts | 129° |
| 2026-05-06 16:49 | 50.09633 | 14.27654 | 1220 ft | 35 kts | 130° |
| 2026-05-06 16:49 | 50.09468 | 14.27903 | 1231 ft | 31 kts | 135° |
| 2026-05-06 16:49 | 50.09317 | 14.28137 | 1242 ft | 30 kts | 135° |
| 2026-05-06 16:49 | 50.09176 | 14.28280 | 1239 ft | 18 kts | 194° |
| 2026-05-06 16:50 | 50.09143 | 14.28257 | 1240 ft | 0 kts | 214° |
| 2026-05-06 16:51 | 50.09131 | 14.28243 | 1250 ft | 8 kts | 218° |
| 2026-05-06 16:51 | 50.09070 | 14.28145 | 1245 ft | 16 kts | 233° |
| 2026-05-06 16:51 | 50.09099 | 14.28047 | 1242 ft | 9 kts | 325° |
| 2026-05-06 16:51 | 50.09128 | 14.27993 | 1238 ft | 0 kts | 306° |
| 2026-05-06 16:52 | 50.09129 | 14.27991 | 1238 ft | 2 kts | 306° |
| 2026-05-06 16:52 | 50.09228 | 14.27786 | 1246 ft | 57 kts | 307° |
| 2026-05-06 16:52 | 50.09601 | 14.27015 | 1213 ft | 121 kts | 307° |
| 2026-05-06 16:52 | 50.10212 | 14.25747 | 1230 ft | 165 kts | 307° |
| 2026-05-06 16:53 | 50.10899 | 14.24417 | 1997 ft | 154 kts | 311° |
| 2026-05-06 16:53 | 50.11612 | 14.23107 | 2497 ft | 167 kts | 308° |
| 2026-05-06 16:53 | 50.12342 | 14.21560 | 2878 ft | 187 kts | 305° |
| 2026-05-06 16:53 | 50.13139 | 14.19812 | 3320 ft | 209 kts | 304° |
| 2026-05-06 16:54 | 50.14033 | 14.17885 | 3808 ft | 228 kts | 305° |
| 2026-05-06 16:54 | 50.15028 | 14.15783 | 4255 ft | 252 kts | 305° |
| 2026-05-06 16:54 | 50.16120 | 14.13502 | 4760 ft | 273 kts | 305° |
| 2026-05-06 16:54 | 50.17269 | 14.11119 | 5253 ft | 275 kts | 305° |
| 2026-05-06 16:55 | 50.18004 | 14.09509 | 5578 ft | 275 kts | 297° |
| 2026-05-06 16:55 | 50.18596 | 14.05741 | 6258 ft | 273 kts | 269° |
| 2026-05-06 16:55 | 50.18583 | 14.02765 | 6736 ft | 271 kts | 265° |
| 2026-05-06 16:55 | 50.18538 | 14.00801 | 7072 ft | 273 kts | 265° |
| 2026-05-06 16:56 | 50.18479 | 13.96867 | 7731 ft | 274 kts | 266° |
| 2026-05-06 16:56 | 50.18472 | 13.93877 | 8239 ft | 276 kts | 267° |
| 2026-05-06 16:56 | 50.18481 | 13.91844 | 8574 ft | 277 kts | 268° |
| 2026-05-06 16:56 | 50.18506 | 13.88823 | 9106 ft | 279 kts | 268° |
| 2026-05-06 16:57 | 50.18547 | 13.84788 | 9791 ft | 281 kts | 268° |
| 2026-05-06 16:57 | 50.18567 | 13.82741 | 10128 ft | 291 kts | 268° |
| 2026-05-06 16:57 | 50.18596 | 13.79488 | 10617 ft | 308 kts | 268° |
| 2026-05-06 16:57 | 50.18626 | 13.76060 | 11131 ft | 324 kts | 268° |
| 2026-05-06 16:58 | 50.18658 | 13.72491 | 11629 ft | 331 kts | 268° |
| 2026-05-06 16:58 | 50.18690 | 13.68893 | 12144 ft | 333 kts | 268° |
| 2026-05-06 16:58 | 50.18723 | 13.65266 | 12665 ft | 334 kts | 268° |
| 2026-05-06 16:58 | 50.18754 | 13.61628 | 13194 ft | 336 kts | 268° |
| 2026-05-06 16:59 | 50.18783 | 13.57961 | 13715 ft | 338 kts | 268° |
| 2026-05-06 16:59 | 50.18810 | 13.54280 | 14192 ft | 340 kts | 268° |
| 2026-05-06 16:59 | 50.18836 | 13.50569 | 14688 ft | 342 kts | 268° |
| 2026-05-06 16:59 | 50.18861 | 13.46885 | 15168 ft | 344 kts | 268° |
| 2026-05-06 17:00 | 50.18885 | 13.43090 | 15685 ft | 347 kts | 268° |
| 2026-05-06 17:00 | 50.18908 | 13.39359 | 16189 ft | 349 kts | 268° |
| 2026-05-06 17:00 | 50.18930 | 13.35516 | 16718 ft | 351 kts | 267° |
| 2026-05-06 17:00 | 50.18950 | 13.31728 | 17242 ft | 354 kts | 267° |
| 2026-05-06 17:01 | 50.18969 | 13.27865 | 17785 ft | 357 kts | 267° |
| 2026-05-06 17:01 | 50.18990 | 13.23979 | 18293 ft | 359 kts | 267° |
| 2026-05-06 17:01 | 50.19007 | 13.20064 | 18774 ft | 362 kts | 267° |
| 2026-05-06 17:01 | 50.19023 | 13.16131 | 19263 ft | 365 kts | 267° |
| 2026-05-06 17:02 | 50.19037 | 13.12149 | 19767 ft | 368 kts | 266° |
| 2026-05-06 17:02 | 50.19050 | 13.08155 | 20265 ft | 370 kts | 266° |
| 2026-05-06 17:02 | 50.19063 | 13.04123 | 20780 ft | 373 kts | 266° |
| 2026-05-06 17:02 | 50.19074 | 13.00061 | 21298 ft | 376 kts | 266° |
| 2026-05-06 17:03 | 50.19084 | 12.95957 | 21828 ft | 379 kts | 266° |
| 2026-05-06 17:03 | 50.19092 | 12.91836 | 22360 ft | 382 kts | 266° |
| 2026-05-06 17:03 | 50.19099 | 12.87671 | 22911 ft | 385 kts | 266° |
| 2026-05-06 17:03 | 50.19104 | 12.83478 | 23447 ft | 388 kts | 266° |
| 2026-05-06 17:04 | 50.19108 | 12.79255 | 23916 ft | 390 kts | 266° |
| 2026-05-06 17:04 | 50.19111 | 12.75012 | 24390 ft | 392 kts | 266° |
| 2026-05-06 17:04 | 50.19111 | 12.70750 | 24871 ft | 393 kts | 266° |
| 2026-05-06 17:04 | 50.19111 | 12.66460 | 25352 ft | 395 kts | 266° |
| 2026-05-06 17:05 | 50.19109 | 12.62176 | 25820 ft | 397 kts | 266° |
| 2026-05-06 17:05 | 50.19105 | 12.57853 | 26273 ft | 400 kts | 266° |
| 2026-05-06 17:05 | 50.19100 | 12.53502 | 26717 ft | 401 kts | 266° |
| 2026-05-06 17:05 | 50.19093 | 12.49140 | 27162 ft | 403 kts | 266° |
| 2026-05-06 17:06 | 50.19084 | 12.44742 | 27589 ft | 405 kts | 266° |
| 2026-05-06 17:06 | 50.19074 | 12.40406 | 27985 ft | 407 kts | 266° |
| 2026-05-06 17:06 | 50.19232 | 12.35970 | 28367 ft | 413 kts | 272° |
| 2026-05-06 17:06 | 50.19739 | 12.31537 | 28749 ft | 418 kts | 279° |
| 2026-05-06 17:07 | 50.20584 | 12.27167 | 29130 ft | 424 kts | 285° |
| 2026-05-06 17:07 | 50.21600 | 12.22820 | 29474 ft | 427 kts | 284° |
| 2026-05-06 17:07 | 50.22608 | 12.18457 | 29736 ft | 429 kts | 284° |
| 2026-05-06 17:08 | 50.24619 | 12.09690 | 29766 ft | 428 kts | 284° |
| 2026-05-06 17:08 | 50.26619 | 12.00924 | 29772 ft | 428 kts | 284° |
| 2026-05-06 17:09 | 50.28629 | 11.92156 | 29776 ft | 428 kts | 284° |
| 2026-05-06 17:09 | 50.30641 | 11.83380 | 29777 ft | 429 kts | 284° |
| 2026-05-06 17:10 | 50.32648 | 11.74579 | 29772 ft | 430 kts | 285° |
| 2026-05-06 17:10 | 50.34651 | 11.65749 | 29771 ft | 431 kts | 285° |
| 2026-05-06 17:11 | 50.36652 | 11.56891 | 29766 ft | 432 kts | 285° |
| 2026-05-06 17:11 | 50.38651 | 11.48002 | 29760 ft | 433 kts | 285° |
| 2026-05-06 17:12 | 50.40649 | 11.39083 | 29758 ft | 434 kts | 285° |
| 2026-05-06 17:12 | 50.42644 | 11.30140 | 29750 ft | 435 kts | 285° |
| 2026-05-06 17:13 | 50.44631 | 11.21181 | 29755 ft | 435 kts | 285° |
| 2026-05-06 17:13 | 50.46613 | 11.12207 | 29765 ft | 436 kts | 285° |
| 2026-05-06 17:14 | 50.48590 | 11.03216 | 29761 ft | 436 kts | 285° |
| 2026-05-06 17:14 | 50.50561 | 10.94211 | 29769 ft | 436 kts | 285° |
| 2026-05-06 17:15 | 50.52525 | 10.85202 | 29710 ft | 434 kts | 285° |
| 2026-05-06 17:15 | 50.53498 | 10.80727 | 29268 ft | 432 kts | 285° |
| 2026-05-06 17:15 | 50.54477 | 10.76346 | 28675 ft | 429 kts | 286° |
| 2026-05-06 17:15 | 50.55495 | 10.71888 | 28034 ft | 426 kts | 287° |
| 2026-05-06 17:16 | 50.56481 | 10.67578 | 27379 ft | 423 kts | 287° |
| 2026-05-06 17:16 | 50.57470 | 10.63230 | 26606 ft | 422 kts | 287° |
| 2026-05-06 17:16 | 50.58468 | 10.58820 | 25844 ft | 422 kts | 287° |
| 2026-05-06 17:16 | 50.59434 | 10.54543 | 25286 ft | 418 kts | 287° |
| 2026-05-06 17:17 | 50.60403 | 10.50256 | 25001 ft | 415 kts | 287° |
| 2026-05-06 17:17 | 50.61372 | 10.45961 | 24760 ft | 418 kts | 287° |
| 2026-05-06 17:17 | 50.62343 | 10.41647 | 24518 ft | 417 kts | 287° |
| 2026-05-06 17:17 | 50.63308 | 10.37350 | 24278 ft | 415 kts | 287° |
| 2026-05-06 17:18 | 50.64162 | 10.33027 | 24047 ft | 411 kts | 278° |
| 2026-05-06 17:18 | 50.64365 | 10.28582 | 23824 ft | 406 kts | 264° |
| 2026-05-06 17:18 | 50.63861 | 10.24254 | 23535 ft | 400 kts | 250° |
| 2026-05-06 17:18 | 50.62722 | 10.20293 | 23036 ft | 396 kts | 240° |
| 2026-05-06 17:19 | 50.61399 | 10.16520 | 22800 ft | 392 kts | 240° |
| 2026-05-06 17:19 | 50.60079 | 10.12740 | 22774 ft | 396 kts | 240° |
| 2026-05-06 17:19 | 50.58751 | 10.08931 | 22775 ft | 397 kts | 240° |
| 2026-05-06 17:19 | 50.57427 | 10.05129 | 22775 ft | 397 kts | 240° |
| 2026-05-06 17:20 | 50.56101 | 10.01321 | 22779 ft | 397 kts | 240° |
| 2026-05-06 17:20 | 50.54795 | 9.97501 | 22778 ft | 397 kts | 243° |
| 2026-05-06 17:20 | 50.53737 | 9.93487 | 22777 ft | 398 kts | 250° |
| 2026-05-06 17:20 | 50.52958 | 9.89313 | 22672 ft | 396 kts | 253° |
| 2026-05-06 17:21 | 50.52221 | 9.85152 | 22239 ft | 395 kts | 253° |
| 2026-05-06 17:21 | 50.51482 | 9.81021 | 21678 ft | 392 kts | 253° |
| 2026-05-06 17:21 | 50.50741 | 9.76912 | 21040 ft | 389 kts | 253° |
| 2026-05-06 17:21 | 50.50006 | 9.72845 | 20446 ft | 386 kts | 253° |
| 2026-05-06 17:22 | 50.49303 | 9.68798 | 19847 ft | 383 kts | 253° |
| 2026-05-06 17:22 | 50.48616 | 9.64779 | 19251 ft | 380 kts | 253° |
| 2026-05-06 17:22 | 50.47933 | 9.60787 | 18685 ft | 377 kts | 253° |
| 2026-05-06 17:22 | 50.47253 | 9.56830 | 18121 ft | 374 kts | 253° |
| 2026-05-06 17:23 | 50.46578 | 9.52908 | 17519 ft | 371 kts | 253° |
| 2026-05-06 17:23 | 50.45908 | 9.49024 | 16911 ft | 367 kts | 253° |
| 2026-05-06 17:23 | 50.45242 | 9.45174 | 16319 ft | 364 kts | 253° |
| 2026-05-06 17:23 | 50.44583 | 9.41362 | 15756 ft | 360 kts | 253° |
| 2026-05-06 17:24 | 50.43930 | 9.37591 | 15201 ft | 357 kts | 253° |
| 2026-05-06 17:24 | 50.43278 | 9.33839 | 14657 ft | 355 kts | 253° |
| 2026-05-06 17:24 | 50.42632 | 9.30128 | 14118 ft | 352 kts | 253° |
| 2026-05-06 17:24 | 50.41989 | 9.26439 | 13590 ft | 349 kts | 253° |
| 2026-05-06 17:25 | 50.41349 | 9.22786 | 13017 ft | 346 kts | 253° |
| 2026-05-06 17:25 | 50.40712 | 9.19165 | 12463 ft | 343 kts | 253° |
| 2026-05-06 17:25 | 50.40079 | 9.15580 | 11929 ft | 340 kts | 253° |
| 2026-05-06 17:25 | 50.39449 | 9.12032 | 11403 ft | 336 kts | 253° |
| 2026-05-06 17:26 | 50.38823 | 9.08516 | 10877 ft | 334 kts | 253° |
| 2026-05-06 17:26 | 50.38201 | 9.05028 | 10358 ft | 331 kts | 253° |
| 2026-05-06 17:26 | 50.37583 | 9.01577 | 9872 ft | 328 kts | 253° |
| 2026-05-06 17:26 | 50.36972 | 8.98161 | 9150 ft | 323 kts | 253° |
| 2026-05-06 17:27 | 50.36373 | 8.94833 | 8387 ft | 320 kts | 253° |
| 2026-05-06 17:27 | 50.35742 | 8.91523 | 7611 ft | 315 kts | 247° |
| 2026-05-06 17:27 | 50.34543 | 8.88693 | 6868 ft | 312 kts | 224° |
| 2026-05-06 17:27 | 50.32708 | 8.86854 | 6078 ft | 312 kts | 201° |
| 2026-05-06 17:28 | 50.30579 | 8.86369 | 5379 ft | 311 kts | 176° |
| 2026-05-06 17:28 | 50.28526 | 8.87347 | 5108 ft | 321 kts | 152° |
| 2026-05-06 17:28 | 50.26823 | 8.89585 | 5021 ft | 322 kts | 134° |
| 2026-05-06 17:28 | 50.25347 | 8.92188 | 5007 ft | 317 kts | 133° |
| 2026-05-06 17:29 | 50.23893 | 8.94768 | 5000 ft | 317 kts | 133° |
| 2026-05-06 17:29 | 50.22436 | 8.97353 | 5007 ft | 316 kts | 133° |
| 2026-05-06 17:29 | 50.20983 | 8.99932 | 4996 ft | 316 kts | 133° |
| 2026-05-06 17:29 | 50.19527 | 9.02511 | 5003 ft | 317 kts | 133° |
| 2026-05-06 17:30 | 50.18068 | 9.05092 | 5004 ft | 317 kts | 134° |
| 2026-05-06 17:30 | 50.16546 | 9.07568 | 4995 ft | 314 kts | 144° |
| 2026-05-06 17:30 | 50.14625 | 9.09084 | 4999 ft | 309 kts | 168° |
| 2026-05-06 17:30 | 50.12510 | 9.09247 | 5000 ft | 304 kts | 192° |
| 2026-05-06 17:31 | 50.10569 | 9.08048 | 5001 ft | 300 kts | 216° |
| 2026-05-06 17:31 | 50.09148 | 9.05715 | 5004 ft | 299 kts | 240° |
| 2026-05-06 17:31 | 50.08500 | 9.02674 | 4999 ft | 299 kts | 264° |
| 2026-05-06 17:31 | 50.08735 | 8.99482 | 5003 ft | 298 kts | 286° |
| 2026-05-06 17:32 | 50.09509 | 8.96605 | 4999 ft | 282 kts | 292° |
| 2026-05-06 17:32 | 50.10269 | 8.93885 | 4970 ft | 266 kts | 291° |
| 2026-05-06 17:32 | 50.10989 | 8.91306 | 4868 ft | 253 kts | 291° |
| 2026-05-06 17:32 | 50.11672 | 8.88844 | 4763 ft | 241 kts | 289° |
| 2026-05-06 17:33 | 50.12016 | 8.86383 | 4658 ft | 227 kts | 269° |
| 2026-05-06 17:33 | 50.11830 | 8.84057 | 4554 ft | 214 kts | 255° |
| 2026-05-06 17:33 | 50.11403 | 8.81904 | 4428 ft | 202 kts | 250° |
| 2026-05-06 17:33 | 50.10910 | 8.79869 | 4254 ft | 193 kts | 249° |
| 2026-05-06 17:34 | 50.10457 | 8.77965 | 3961 ft | 188 kts | 250° |
| 2026-05-06 17:34 | 50.10004 | 8.76069 | 3662 ft | 182 kts | 250° |
| 2026-05-06 17:34 | 50.09576 | 8.74276 | 3409 ft | 171 kts | 250° |
| 2026-05-06 17:34 | 50.09177 | 8.72608 | 3172 ft | 157 kts | 251° |
| 2026-05-06 17:35 | 50.08814 | 8.71084 | 2953 ft | 144 kts | 251° |
| 2026-05-06 17:35 | 50.08477 | 8.69672 | 2745 ft | 135 kts | 251° |
| 2026-05-06 17:35 | 50.08136 | 8.68240 | 2559 ft | 146 kts | 252° |
| 2026-05-06 17:36 | 50.07433 | 8.65304 | 2135 ft | 142 kts | 253° |
| 2026-05-06 17:36 | 50.07094 | 8.63881 | 1921 ft | 144 kts | 253° |
| 2026-05-06 17:36 | 50.06749 | 8.62409 | 1687 ft | 145 kts | 253° |
| 2026-05-06 17:36 | 50.06396 | 8.60952 | 1477 ft | 141 kts | 252° |
| 2026-05-06 17:37 | 50.06047 | 8.59503 | 1213 ft | 145 kts | 253° |
| 2026-05-06 17:37 | 50.05710 | 8.58047 | 993 ft | 140 kts | 254° |
| 2026-05-06 17:37 | 50.05395 | 8.56622 | 838 ft | 141 kts | 252° |
| 2026-05-06 17:37 | 50.05014 | 8.55189 | 618 ft | 145 kts | 249° |
| 2026-05-06 17:38 | 50.04666 | 8.53756 | 453 ft | 139 kts | 253° |
| 2026-05-06 17:38 | 50.04343 | 8.52350 | 347 ft | 131 kts | 251° |
| 2026-05-06 17:38 | 50.04120 | 8.51431 | 329 ft | 52 kts | 251° |
| 2026-05-06 17:38 | 50.03965 | 8.51001 | 325 ft | 41 kts | 225° |
| 2026-05-06 17:39 | 50.03803 | 8.50845 | 330 ft | 8 kts | 152° |
| 2026-05-06 17:39 | 50.03794 | 8.50975 | 331 ft | 16 kts | 66° |
| 2026-05-06 17:39 | 50.03840 | 8.51160 | 333 ft | 20 kts | 75° |
| 2026-05-06 17:39 | 50.03890 | 8.51372 | 333 ft | 22 kts | 69° |
| 2026-05-06 17:40 | 50.03944 | 8.51606 | 334 ft | 24 kts | 69° |
| 2026-05-06 17:40 | 50.04005 | 8.51853 | 336 ft | 25 kts | 68° |
| 2026-05-06 17:40 | 50.04071 | 8.52111 | 337 ft | 26 kts | 78° |
| 2026-05-06 17:40 | 50.04130 | 8.52371 | 348 ft | 25 kts | 71° |
| 2026-05-06 17:41 | 50.04190 | 8.52630 | 357 ft | 26 kts | 69° |
| 2026-05-06 17:41 | 50.04259 | 8.52888 | 358 ft | 26 kts | 66° |
| 2026-05-06 17:41 | 50.04314 | 8.53155 | 361 ft | 25 kts | 73° |
| 2026-05-06 17:41 | 50.04365 | 8.53389 | 371 ft | 21 kts | 61° |
| 2026-05-06 17:42 | 50.04402 | 8.53599 | 375 ft | 21 kts | 84° |
| 2026-05-06 17:42 | 50.04417 | 8.53837 | 375 ft | 23 kts | 84° |
| 2026-05-06 17:42 | 50.04435 | 8.54100 | 375 ft | 26 kts | 83° |
| 2026-05-06 17:42 | 50.04454 | 8.54388 | 372 ft | 29 kts | 83° |
| 2026-05-06 17:43 | 50.04383 | 8.54695 | 361 ft | 33 kts | 135° |
| 2026-05-06 17:43 | 50.04243 | 8.54810 | 354 ft | 37 kts | 162° |
| 2026-05-06 17:43 | 50.04044 | 8.54923 | 352 ft | 19 kts | 158° |
| 2026-05-06 17:43 | 50.03873 | 8.55034 | 354 ft | 19 kts | 147° |
| 2026-05-06 17:44 | 50.03861 | 8.55158 | 353 ft | 19 kts | 72° |
| 2026-05-06 17:44 | 50.03910 | 8.55368 | 350 ft | 22 kts | 71° |
| 2026-05-06 17:44 | 50.03966 | 8.55604 | 350 ft | 25 kts | 70° |
| 2026-05-06 17:44 | 50.04035 | 8.55858 | 358 ft | 26 kts | 64° |
| 2026-05-06 17:45 | 50.04091 | 8.56124 | 354 ft | 26 kts | 69° |
| 2026-05-06 17:45 | 50.04124 | 8.56268 | 355 ft | 11 kts | 68° |
| 2026-05-06 17:45 | 50.04156 | 8.56395 | 360 ft | 14 kts | 70° |
| 2026-05-06 17:45 | 50.04195 | 8.56560 | 360 ft | 19 kts | 69° |
| 2026-05-06 17:46 | 50.04234 | 8.56723 | 359 ft | 13 kts | 70° |
| 2026-05-06 17:46 | 50.04295 | 8.56814 | 361 ft | 13 kts | 15° |
| 2026-05-06 17:46 | 50.04367 | 8.56833 | 363 ft | 12 kts | 9° |
| 2026-05-06 17:46 | 50.04441 | 8.56854 | 361 ft | 7 kts | 10° |
| 2026-05-06 17:47 | 50.04501 | 8.56871 | 359 ft | 10 kts | 13° |
| 2026-05-06 17:47 | 50.04561 | 8.56890 | 358 ft | 5 kts | 349° |
| 2026-05-06 17:47 | 50.04595 | 8.56814 | 358 ft | 11 kts | 295° |
| 2026-05-06 17:47 | 50.04607 | 8.56774 | 359 ft | 1 kts | 294° |
| 2026-05-06 17:48 | 50.04609 | 8.56768 | 364 ft | 0 kts | 294° |